Time;durP1;ratioP1;P1;durP2;ratioP2;P2;SDS_P1;SDS_P2;PMS_P1;PMS_P2;Temp;Humidity;BMP_temperature;BMP_pressure;BME280_temperature;BME280_humidity;BME280_pressure;Samples;Min_cycle;Max_cycle;Signal;HPM_P1;HPM_P2
2023/10/02 00:05:05;;;;;;;26.92;13.00;;;16.90;99.90;;;;;;5026810;28;128131;-71
2023/10/02 00:07:36;;;;;;;27.45;13.27;;;16.80;99.90;;;;;;5058487;28;20594;-70
2023/10/02 00:10:03;;;;;;;27.80;13.20;;;16.80;99.90;;;;;;4990657;28;146680;-71
2023/10/02 00:12:31;;;;;;;26.92;13.65;;;16.80;99.90;;;;;;5059095;28;20533;-69
2023/10/02 00:15:11;;;;;;;26.85;12.82;;;16.80;99.90;;;;;;5004358;28;20060;-71
2023/10/02 00:17:43;;;;;;;26.63;13.18;;;16.70;99.90;;;;;;5064011;28;20049;-72
2023/10/02 00:20:21;;;;;;;27.80;13.80;;;16.80;99.90;;;;;;4995405;28;20045;-70
2023/10/02 00:22:48;;;;;;;25.02;13.02;;;16.80;99.90;;;;;;5028544;28;21292;-71
2023/10/02 00:25:27;;;;;;;26.60;13.40;;;16.80;99.90;;;;;;5039362;28;35732;-71
2023/10/02 00:27:54;;;;;;;28.98;13.00;;;16.80;99.90;;;;;;5028501;28;20506;-71
2023/10/02 00:30:23;;;;;;;26.83;13.48;;;16.80;99.90;;;;;;5050125;28;120487;-71
2023/10/02 00:32:50;;;;;;;27.60;13.02;;;16.80;99.90;;;;;;5032801;28;20060;-71
2023/10/02 00:35:17;;;;;;;31.23;14.05;;;16.90;99.90;;;;;;5038966;28;214116;-71
2023/10/02 00:37:44;;;;;;;26.50;13.80;;;16.90;99.90;;;;;;5047275;28;20048;-71
2023/10/02 00:40:13;;;;;;;27.23;14.40;;;16.90;99.90;;;;;;5050610;28;67567;-71
2023/10/02 00:42:40;;;;;;;24.30;12.30;;;17.00;99.90;;;;;;5065324;28;20053;-72
2023/10/02 00:45:08;;;;;;;25.25;12.52;;;17.00;99.90;;;;;;5009856;28;20572;-72
2023/10/02 00:50:17;;;;;;;26.88;13.40;;;17.10;99.90;;;;;;4996038;28;254534;-72
2023/10/02 00:53:03;;;;;;;25.92;13.23;;;17.10;99.90;;;;;;5053008;28;20067;-69
2023/10/02 00:55:34;;;;;;;25.10;13.57;;;17.10;99.90;;;;;;4984052;28;20089;-71
2023/10/02 00:58:05;;;;;;;26.20;12.52;;;17.10;99.90;;;;;;5019541;28;20542;-71
2023/10/02 01:00:37;;;;;;;26.35;13.60;;;17.10;99.90;;;;;;5033488;28;20052;-71
2023/10/02 01:03:08;;;;;;;25.50;14.00;;;17.20;99.90;;;;;;5019179;28;20045;-71
2023/10/02 01:05:58;;;;;;;;;;;17.10;99.90;;;;;;5020349;28;20056;-71
2023/10/02 01:08:25;;;;;;;25.40;12.52;;;17.20;99.90;;;;;;5010999;28;20341;-71
2023/10/02 01:10:59;;;;;;;28.52;13.07;;;17.10;99.90;;;;;;5047961;28;20515;-71
2023/10/02 01:13:35;;;;;;;25.98;13.27;;;17.10;99.90;;;;;;5023988;28;129305;-71
2023/10/02 01:16:04;;;;;;;24.27;12.88;;;17.20;99.90;;;;;;5065302;28;20536;-71
2023/10/02 01:18:31;;;;;;;28.92;14.02;;;17.10;99.90;;;;;;4996025;28;175649;-71
2023/10/02 01:20:59;;;;;;;27.70;13.55;;;17.20;99.90;;;;;;5061462;28;20424;-71
2023/10/02 01:23:27;;;;;;;25.63;13.90;;;17.20;99.90;;;;;;5017460;28;164426;-71
2023/10/02 01:26:00;;;;;;;27.08;13.38;;;17.20;99.90;;;;;;5060235;28;20458;-71
2023/10/02 01:28:54;;;;;;;26.33;13.70;;;17.20;99.90;;;;;;5008247;28;236323;-71
2023/10/02 01:31:40;;;;;;;27.60;13.25;;;17.20;99.90;;;;;;5052590;28;20057;-71
2023/10/02 01:34:07;;;;;;;27.95;13.77;;;17.20;99.90;;;;;;5010796;28;210946;-71
2023/10/02 01:36:34;;;;;;;29.23;13.85;;;17.10;99.90;;;;;;5050883;28;20060;-71
2023/10/02 01:39:14;;;;;;;25.20;13.55;;;17.10;99.90;;;;;;5003833;28;150821;-71
2023/10/02 01:41:41;;;;;;;28.90;14.25;;;17.00;99.90;;;;;;5056137;28;20139;-71
2023/10/02 01:44:12;;;;;;;25.27;13.30;;;17.00;99.90;;;;;;5013793;28;38410;-71
2023/10/02 01:46:49;;;;;;;30.10;14.13;;;16.90;99.90;;;;;;5055698;28;20045;-70
2023/10/02 01:49:25;;;;;;;27.85;14.10;;;16.90;99.90;;;;;;5027035;28;31733;-70
2023/10/02 01:52:01;;;;;;;26.13;13.63;;;16.90;99.90;;;;;;5049504;28;20056;-71
2023/10/02 01:54:29;;;;;;;29.38;14.48;;;16.90;99.90;;;;;;4979448;28;218479;-72
2023/10/02 01:56:56;;;;;;;28.90;14.27;;;16.90;99.90;;;;;;5062072;28;20052;-72
2023/10/02 01:59:24;;;;;;;25.25;13.70;;;16.90;99.90;;;;;;5013309;28;190560;-70
2023/10/02 02:01:53;;;;;;;26.52;13.60;;;16.90;99.90;;;;;;5055732;28;20465;-71
2023/10/02 02:04:19;;;;;;;28.52;14.13;;;16.90;99.90;;;;;;5008035;28;51454;-71
2023/10/02 02:06:52;;;;;;;27.85;14.43;;;16.90;99.90;;;;;;5049153;28;20052;-71
2023/10/02 02:09:25;;;;;;;24.77;13.52;;;16.90;99.90;;;;;;5000858;28;114065;-71
2023/10/02 02:12:05;;;;;;;28.15;13.93;;;16.90;99.90;;;;;;5054470;28;20060;-71
2023/10/02 02:14:51;;;;;;;27.98;15.38;;;16.90;99.90;;;;;;5023772;28;151415;-71
2023/10/02 02:17:18;;;;;;;27.80;14.63;;;16.90;99.90;;;;;;5067261;28;20051;-70
2023/10/02 02:19:48;;;;;;;27.65;14.55;;;16.80;99.90;;;;;;5035777;28;20441;-70
2023/10/02 02:22:23;;;;;;;31.02;15.02;;;16.80;99.90;;;;;;5059278;28;20044;-72
2023/10/02 02:24:51;;;;;;;28.50;14.98;;;16.80;99.90;;;;;;4990841;28;20056;-71
2023/10/02 02:27:19;;;;;;;29.63;14.52;;;16.80;99.90;;;;;;5059192;28;20052;-72
2023/10/02 02:29:47;;;;;;;30.83;14.25;;;16.70;99.90;;;;;;5009792;28;20041;-71
2023/10/02 02:32:13;;;;;;;27.92;14.13;;;16.70;99.90;;;;;;5057877;28;20044;-70
2023/10/02 02:34:39;;;;;;;29.13;14.82;;;16.70;99.90;;;;;;5003110;28;20040;-71
2023/10/02 02:37:06;;;;;;;26.35;14.75;;;16.70;99.90;;;;;;5053848;28;20056;-71
2023/10/02 02:39:37;;;;;;;27.98;14.52;;;16.70;99.90;;;;;;5017915;28;20052;-71
2023/10/02 02:42:18;;;;;;;28.10;14.43;;;16.60;99.90;;;;;;5058126;28;20079;-72
2023/10/02 02:44:49;;;;;;;31.80;15.70;;;16.60;99.90;;;;;;5014357;28;20053;-72
2023/10/02 02:47:17;;;;;;;26.60;14.48;;;16.70;99.90;;;;;;5058498;28;20522;-72
2023/10/02 02:49:48;;;;;;;29.58;15.02;;;16.60;99.90;;;;;;5016287;28;20052;-70
2023/10/02 02:52:24;;;;;;;30.88;14.88;;;16.70;99.90;;;;;;5056261;28;20049;-71
2023/10/02 02:54:58;;;;;;;28.48;15.45;;;16.70;99.90;;;;;;5008164;28;35204;-70
2023/10/02 02:57:31;;;;;;;27.55;15.00;;;16.70;99.90;;;;;;5064601;28;20063;-71
2023/10/02 03:03:01;;;;;;;27.83;15.35;;;16.80;99.90;;;;;;4998964;28;20060;-70
2023/10/02 03:05:41;;;;;;;30.63;15.67;;;16.80;99.90;;;;;;5039663;28;20049;-70
2023/10/02 03:08:12;;;;;;;28.88;14.48;;;16.80;99.90;;;;;;5019333;28;20061;-70
2023/10/02 03:10:40;;;;;;;28.83;15.05;;;16.80;99.90;;;;;;5052454;28;20064;-71
2023/10/02 03:13:16;;;;;;;29.58;15.13;;;16.80;99.90;;;;;;5014555;28;20054;-72
2023/10/02 03:15:46;;;;;;;31.17;15.25;;;16.80;99.90;;;;;;5051317;28;20518;-71
2023/10/02 03:18:23;;;;;;;29.10;15.63;;;16.80;99.90;;;;;;5012461;28;20229;-72
2023/10/02 03:20:50;;;;;;;29.73;15.63;;;16.80;99.90;;;;;;5051031;28;20052;-71
2023/10/02 03:23:18;;;;;;;29.23;15.60;;;16.90;99.90;;;;;;5019080;28;20060;-71
2023/10/02 03:25:48;;;;;;;30.90;15.27;;;16.80;99.90;;;;;;5045754;28;20075;-71
2023/10/02 03:28:32;;;;;;;29.77;14.75;;;16.90;99.90;;;;;;5018091;28;20542;-70
2023/10/02 03:31:00;;;;;;;29.95;14.77;;;16.80;99.90;;;;;;5050742;28;20056;-71
2023/10/02 03:33:31;;;;;;;30.65;15.07;;;16.80;99.90;;;;;;5002501;28;20056;-71
2023/10/02 03:35:58;;;;;;;33.63;16.73;;;16.70;99.90;;;;;;5053637;28;20673;-71
2023/10/02 03:38:26;;;;;;;28.27;14.82;;;16.70;99.90;;;;;;5017476;28;20048;-71
2023/10/02 03:40:59;;;;;;;25.83;14.57;;;16.70;99.90;;;;;;5032811;28;20048;-71
2023/10/02 03:43:34;;;;;;;29.35;15.43;;;16.60;99.90;;;;;;5019573;28;20052;-71
2023/10/02 03:46:04;;;;;;;30.40;15.68;;;16.60;99.90;;;;;;5054026;28;20059;-70
2023/10/02 03:48:32;;;;;;;31.10;16.27;;;16.60;99.90;;;;;;5011118;28;20072;-70
2023/10/02 03:51:03;;;;;;;31.90;15.93;;;16.60;99.90;;;;;;5049468;28;20044;-70
2023/10/02 03:53:29;;;;;;;27.25;15.48;;;16.50;99.90;;;;;;5001780;28;102579;-70
2023/10/02 03:56:36;;;;;;;29.83;15.77;;;16.50;99.90;;;;;;5036454;28;20415;-70
2023/10/02 03:58:48;;;;;;;30.88;15.65;;;16.50;99.90;;;;;;5006540;28;20049;-71
2023/10/02 04:01:17;;;;;;;30.75;16.02;;;16.40;99.90;;;;;;5038201;28;20063;-72
2023/10/02 04:06:35;;;;;;;29.38;15.30;;;16.40;99.90;;;;;;5052609;28;20048;-71
2023/10/02 04:11:39;;;;;;;31.63;16.60;;;16.40;99.90;;;;;;5063455;28;20063;-71
2023/10/02 04:14:17;;;;;;;29.85;16.15;;;16.40;99.90;;;;;;5008401;28;20056;-69
2023/10/02 04:17:01;;;;;;;31.67;15.18;;;16.40;99.90;;;;;;5059740;28;20059;-71
2023/10/02 04:19:27;;;;;;;29.13;15.65;;;16.40;99.90;;;;;;5003775;28;20060;-71
2023/10/02 04:21:56;;;;;;;32.20;16.35;;;16.30;99.90;;;;;;5053573;28;20045;-72
2023/10/02 04:24:26;;;;;;;28.10;15.43;;;16.40;99.90;;;;;;5003905;28;20053;-70
2023/10/02 04:27:14;;;;;;;30.48;16.52;;;16.40;99.90;;;;;;5056633;28;20438;-70
2023/10/02 04:30:02;;;;;;;28.30;15.30;;;16.30;99.90;;;;;;5006050;28;20049;-70
2023/10/02 04:32:26;;;;;;;29.65;15.32;;;16.30;99.90;;;;;;5056779;28;20421;-70
2023/10/02 04:34:56;;;;;;;31.58;15.80;;;16.30;99.90;;;;;;5004941;28;20065;-71
2023/10/02 04:37:22;;;;;;;29.67;15.07;;;16.20;99.90;;;;;;5059674;28;20423;-71
2023/10/02 04:42:25;;;;;;;29.63;16.02;;;16.20;99.90;;;;;;5063632;28;20060;-71
2023/10/02 04:45:07;;;;;;;31.33;16.65;;;16.10;99.90;;;;;;4984329;28;20048;-70
2023/10/02 04:47:35;;;;;;;35.03;16.42;;;16.20;99.90;;;;;;5056311;28;20060;-70
2023/10/02 04:55:25;;;;;;;32.58;16.25;;;16.20;99.90;;;;;;4969797;28;20061;-71
2023/10/02 04:57:54;;;;;;;30.67;15.43;;;16.20;99.90;;;;;;5016710;28;20059;-71
2023/10/02 05:00:32;;;;;;;29.35;15.88;;;16.20;99.90;;;;;;5040018;28;20061;-71
2023/10/02 05:03:18;;;;;;;29.98;16.15;;;16.20;99.90;;;;;;5020054;28;20060;-70
2023/10/02 05:05:48;;;;;;;31.05;15.93;;;16.20;99.90;;;;;;5047561;28;20045;-72
2023/10/02 05:08:21;;;;;;;28.20;16.15;;;16.20;99.90;;;;;;5028100;28;20052;-71
2023/10/02 05:11:05;;;;;;;29.55;16.27;;;16.20;99.90;;;;;;5047783;28;20057;-70
2023/10/02 05:16:26;;;;;;;30.98;15.27;;;16.20;99.90;;;;;;5062138;28;20041;-70
2023/10/02 05:18:54;;;;;;;29.52;15.95;;;16.10;99.90;;;;;;5021503;28;20056;-70
2023/10/02 05:21:35;;;;;;;28.88;16.00;;;16.10;99.90;;;;;;5049728;28;20049;-70
2023/10/02 05:24:05;;;;;;;;;;;16.10;99.90;;;;;;4998350;28;20440;-70
2023/10/02 05:26:36;;;;;;;30.20;15.40;;;16.00;99.90;;;;;;5043767;28;19927;-71
2023/10/02 05:29:06;;;;;;;;;;;16.00;99.90;;;;;;5020695;28;20048;-71
2023/10/02 05:31:35;;;;;;;28.67;16.27;;;16.00;99.90;;;;;;5055112;28;19920;-71
2023/10/02 05:34:23;;;;;;;31.75;16.42;;;16.00;99.90;;;;;;5004517;28;20053;-70
2023/10/02 05:39:39;;;;;;;37.72;21.40;;;15.90;99.90;;;;;;5006469;28;20071;-71
2023/10/02 05:42:13;;;;;;;36.33;21.67;;;15.90;99.90;;;;;;5059247;28;20052;-70
2023/10/02 05:44:41;;;;;;;34.75;20.95;;;15.90;99.90;;;;;;5001926;28;20463;-70
2023/10/02 05:47:07;;;;;;;37.88;21.40;;;15.80;99.90;;;;;;5063012;28;20048;-70
2023/10/02 05:49:43;;;;;;;37.25;20.88;;;15.80;99.90;;;;;;5016593;28;20104;-69
2023/10/02 05:52:09;;;;;;;43.00;21.30;;;15.80;99.90;;;;;;5058369;28;20045;-70
2023/10/02 05:54:35;;;;;;;34.45;20.42;;;15.80;99.90;;;;;;4982706;28;170024;-71
2023/10/02 05:57:09;;;;;;;33.80;20.75;;;15.80;99.90;;;;;;5059715;28;20429;-70
2023/10/02 05:59:45;;;;;;;31.95;20.10;;;15.80;99.90;;;;;;5021941;28;20052;-72
2023/10/02 06:02:14;;;;;;;36.28;20.92;;;15.90;99.90;;;;;;5064656;28;20088;-70
2023/10/02 06:04:47;;;;;;;33.35;19.10;;;15.90;99.90;;;;;;5015354;28;20052;-71
2023/10/02 06:07:19;;;;;;;36.00;19.25;;;16.00;99.90;;;;;;5064028;28;20087;-70
2023/10/02 06:10:07;;;;;;;36.30;19.00;;;15.90;99.90;;;;;;5013756;28;20040;-70
2023/10/02 06:12:33;;;;;;;32.85;17.17;;;16.00;99.90;;;;;;5059683;28;20053;-70
2023/10/02 06:15:08;;;;;;;32.45;17.13;;;16.00;99.90;;;;;;5019655;28;20114;-71
2023/10/02 06:17:35;;;;;;;32.70;17.17;;;16.10;99.90;;;;;;5064889;28;20067;-72
2023/10/02 06:20:01;;;;;;;31.50;16.90;;;16.10;99.90;;;;;;5001111;28;20053;-70
2023/10/02 06:22:27;;;;;;;35.42;16.58;;;16.20;99.90;;;;;;5062157;28;20049;-72
2023/10/02 06:24:53;;;;;;;31.05;16.13;;;16.20;99.90;;;;;;5005487;28;20059;-70
2023/10/02 06:27:22;;;;;;;30.45;16.67;;;16.30;99.90;;;;;;5061348;28;20044;-70
2023/10/02 06:29:50;;;;;;;34.58;17.00;;;16.40;99.90;;;;;;5020073;28;20052;-70
2023/10/02 06:32:19;;;;;;;31.33;15.27;;;16.40;99.90;;;;;;5062077;28;20068;-71
2023/10/02 06:34:47;;;;;;;30.65;15.35;;;16.50;99.90;;;;;;5022855;28;20063;-72
2023/10/02 06:37:16;;;;;;;28.30;15.05;;;16.50;99.90;;;;;;5044405;28;20063;-70
2023/10/02 06:39:45;;;;;;;26.65;14.52;;;16.50;99.90;;;;;;5003504;28;20071;-71
2023/10/02 06:42:16;;;;;;;29.00;15.30;;;16.50;99.90;;;;;;5059163;28;20685;-71
2023/10/02 06:44:55;;;;;;;;;;;16.50;99.90;;;;;;5014973;28;20048;-72
2023/10/02 06:47:23;;;;;;;31.15;15.20;;;16.50;99.90;;;;;;5063618;28;19916;-71
2023/10/02 06:49:53;;;;;;;28.23;15.63;;;16.60;99.90;;;;;;5001425;28;20120;-70
2023/10/02 06:52:20;;;;;;;27.85;15.00;;;16.60;99.90;;;;;;5058745;28;20048;-70
2023/10/02 06:54:49;;;;;;;31.10;16.40;;;16.60;99.90;;;;;;4986605;28;156125;-71
2023/10/02 06:57:18;;;;;;;31.77;15.00;;;16.60;99.90;;;;;;5056590;28;20040;-71
2023/10/02 06:59:54;;;;;;;28.52;15.20;;;16.60;99.90;;;;;;5032389;28;20048;-72
2023/10/02 07:02:27;;;;;;;27.88;15.48;;;16.60;99.90;;;;;;5060456;28;20410;-70
2023/10/02 07:04:55;;;;;;;25.80;14.75;;;16.70;99.90;;;;;;4990601;28;20041;-70
2023/10/02 07:07:26;;;;;;;29.67;15.35;;;16.70;99.90;;;;;;5061988;28;20053;-71
2023/10/02 07:10:08;;;;;;;;;;;16.70;99.90;;;;;;5036854;28;20040;-70
2023/10/02 07:12:39;;;;;;;30.98;14.57;;;16.80;99.90;;;;;;5059540;28;19917;-71
2023/10/02 07:15:13;;;;;;;28.88;14.57;;;16.80;99.90;;;;;;4983694;28;20572;-71
2023/10/02 07:17:50;;;;;;;31.38;15.48;;;16.80;99.90;;;;;;5065027;28;20045;-72
2023/10/02 07:20:20;;;;;;;29.05;15.65;;;16.80;99.90;;;;;;4970511;28;20040;-71
2023/10/02 07:22:47;;;;;;;28.10;15.35;;;16.80;99.90;;;;;;5032628;28;20438;-71
2023/10/02 07:25:20;;;;;;;30.50;14.98;;;16.90;99.90;;;;;;5042531;28;20044;-72
2023/10/02 07:27:50;;;;;;;30.23;15.18;;;16.90;99.90;;;;;;5033505;28;20060;-71
2023/10/02 07:30:25;;;;;;;31.05;15.52;;;16.90;99.90;;;;;;5034373;28;20048;-71
2023/10/02 07:32:53;;;;;;;28.05;15.48;;;17.00;99.90;;;;;;5021216;28;20057;-70
2023/10/02 07:35:22;;;;;;;30.75;15.38;;;17.10;99.90;;;;;;5033063;28;20057;-71
2023/10/02 07:37:58;;;;;;;31.67;15.65;;;17.20;99.90;;;;;;5020567;28;20053;-70
2023/10/02 07:40:49;;;;;;;30.10;15.52;;;17.20;99.90;;;;;;5038841;28;20415;-71
2023/10/02 07:43:19;;;;;;;32.78;15.13;;;17.30;99.90;;;;;;5016296;28;20643;-70
2023/10/02 07:46:01;;;;;;;33.65;14.98;;;17.50;99.90;;;;;;5044725;28;20057;-72
2023/10/02 07:48:30;;;;;;;33.55;15.75;;;17.60;99.90;;;;;;5020365;28;20092;-71
2023/10/02 07:50:59;;;;;;;31.20;14.95;;;17.60;99.90;;;;;;5020293;28;20056;-72
2023/10/02 07:53:38;;;;;;;30.27;15.48;;;17.60;99.90;;;;;;5006750;28;20052;-71
2023/10/02 07:56:11;;;;;;;29.83;15.30;;;17.70;99.90;;;;;;5055942;28;20056;-72
2023/10/02 07:58:41;;;;;;;30.67;16.02;;;17.90;99.90;;;;;;5017753;28;20048;-71
2023/10/02 08:01:13;;;;;;;30.75;15.90;;;18.00;99.90;;;;;;5056148;28;20056;-70
2023/10/02 08:03:49;;;;;;;30.88;15.98;;;18.00;99.90;;;;;;5013602;28;20056;-71
2023/10/02 08:06:36;;;;;;;30.65;15.98;;;18.10;99.90;;;;;;5046261;28;20434;-71
2023/10/02 08:11:52;;;;;;;30.63;16.10;;;18.20;99.90;;;;;;5047666;28;20049;-70
2023/10/02 08:14:46;;;;;;;28.67;15.47;;;18.40;99.90;;;;;;4996729;28;20099;-70
2023/10/02 08:17:22;;;;;;;32.70;16.55;;;18.40;99.90;;;;;;5063004;28;20306;-71
2023/10/02 08:19:56;;;;;;;31.63;16.88;;;18.50;99.90;;;;;;4988807;28;20064;-72
2023/10/02 08:22:44;;;;;;;32.40;16.77;;;18.50;99.90;;;;;;5059813;28;20060;-71
2023/10/02 08:25:14;;;;;;;29.63;14.98;;;18.60;99.90;;;;;;5015938;28;20494;-71
2023/10/02 08:27:42;;;;;;;34.13;16.80;;;18.60;99.90;;;;;;5057675;28;20045;-71
2023/10/02 08:33:18;;;;;;;36.08;15.57;;;18.80;99.90;;;;;;5019746;28;20802;-72
2023/10/02 08:35:47;;;;;;;30.38;16.20;;;19.00;99.90;;;;;;5058655;28;20056;-71
2023/10/02 08:38:25;;;;;;;31.02;16.67;;;19.10;99.90;;;;;;5016537;28;20550;-72
2023/10/02 08:40:57;;;;;;;27.90;16.30;;;19.20;99.90;;;;;;5049737;28;20056;-71
2023/10/02 08:43:24;;;;;;;33.08;16.60;;;19.30;99.90;;;;;;4998437;28;20475;-71
2023/10/02 08:45:50;;;;;;;29.85;16.17;;;19.50;99.90;;;;;;5038124;28;20083;-71
2023/10/02 08:48:20;;;;;;;33.45;16.20;;;19.60;99.90;;;;;;5015720;28;20049;-70
2023/10/02 08:50:49;;;;;;;30.17;16.02;;;19.70;99.90;;;;;;5038084;28;20083;-72
2023/10/02 08:53:23;;;;;;;29.40;15.43;;;19.80;99.90;;;;;;5011850;28;20055;-72
2023/10/02 08:56:01;;;;;;;30.33;15.45;;;19.80;99.90;;;;;;5053118;28;20063;-71
2023/10/02 08:58:29;;;;;;;31.73;16.85;;;19.90;99.90;;;;;;5009065;28;20791;-71
2023/10/02 09:01:17;;;;;;;30.80;16.83;;;19.80;99.90;;;;;;5063757;28;20060;-70
2023/10/02 09:03:49;;;;;;;30.30;16.30;;;19.80;99.90;;;;;;5010239;28;20535;-71
2023/10/02 09:06:35;;;;;;;32.92;16.15;;;19.90;99.90;;;;;;5044567;28;20171;-71
2023/10/02 09:11:44;;;;;;;32.20;15.52;;;20.20;99.90;;;;;;5054959;28;20534;-71
2023/10/02 09:14:39;;;;;;;34.72;16.70;;;20.40;99.90;;;;;;5013218;28;20056;-70
2023/10/02 09:17:23;;;;;;;28.17;15.07;;;20.70;99.90;;;;;;5066006;28;20184;-70
2023/10/02 09:19:57;;;;;;;29.83;15.05;;;21.00;99.90;;;;;;5004956;28;20049;-71
2023/10/02 09:22:25;;;;;;;30.10;14.50;;;21.40;99.90;;;;;;5067857;28;20384;-71
2023/10/02 09:25:09;;;;;;;28.80;14.75;;;21.90;99.90;;;;;;5016026;28;20052;-71
2023/10/02 09:27:41;;;;;;;32.63;14.15;;;22.30;99.90;;;;;;5063745;28;20044;-71
2023/10/02 09:30:43;;;;;;;29.67;14.30;;;23.00;99.90;;;;;;4997315;28;20051;-70
2023/10/02 09:33:07;;;;;;;31.42;14.88;;;23.20;99.90;;;;;;5019723;28;20046;-71
2023/10/02 09:35:41;;;;;;;29.23;13.52;;;23.30;99.90;;;;;;5036222;28;20045;-71
2023/10/02 09:38:16;;;;;;;28.42;14.50;;;22.90;99.90;;;;;;5017308;28;20065;-71
2023/10/02 09:43:33;;;;;;;27.02;13.80;;;22.60;99.90;;;;;;5019515;28;20124;-72
2023/10/02 09:46:20;;;;;;;29.73;14.38;;;22.20;99.90;;;;;;5045608;28;20044;-71
2023/10/02 09:49:19;;;;;;;33.17;14.68;;;21.90;99.90;;;;;;5016306;28;20056;-72
2023/10/02 09:52:09;;;;;;;30.02;13.88;;;21.60;99.90;;;;;;5054705;28;20541;-71
2023/10/02 09:55:04;;;;;;;30.08;14.90;;;21.40;99.90;;;;;;5001812;28;20056;-70
2023/10/02 09:57:36;;;;;;;29.92;15.00;;;21.20;99.90;;;;;;5066391;28;20075;-70
2023/10/02 10:00:34;;;;;;;29.55;15.02;;;21.40;99.90;;;;;;5002509;28;159976;-71
2023/10/02 10:03:22;;;;;;;30.55;15.65;;;21.60;99.90;;;;;;5020039;28;20071;-71
2023/10/02 10:06:06;;;;;;;31.25;15.52;;;22.00;99.90;;;;;;5035326;28;20068;-71
2023/10/02 10:09:20;;;;;;;27.23;14.57;;;22.90;99.90;;;;;;5017813;28;20055;-71
2023/10/02 10:14:37;;;;;;;29.48;15.27;;;23.50;99.90;;;;;;5010237;28;20044;-71
2023/10/02 10:17:41;;;;;;;30.70;15.00;;;23.40;99.90;;;;;;5059863;28;20052;-71
2023/10/02 10:20:18;;;;;;;27.55;14.73;;;23.00;99.90;;;;;;5000098;28;20044;-71
2023/10/02 10:22:50;;;;;;;31.70;15.98;;;22.70;99.90;;;;;;5056077;28;20047;-70
2023/10/02 10:27:54;;;;;;;26.80;14.48;;;23.30;99.90;;;;;;5038478;28;20048;-69
2023/10/02 10:30:24;;;;;;;29.77;16.10;;;24.20;99.90;;;;;;5048505;28;20422;-71
2023/10/02 10:35:59;;;;;;;29.40;16.52;;;23.30;99.90;;;;;;5045396;28;20056;-71
2023/10/02 10:38:41;;;;;;;31.40;16.02;;;23.20;99.90;;;;;;5016434;28;146001;-70
2023/10/02 10:41:35;;;;;;;31.33;16.35;;;23.60;99.90;;;;;;5045190;28;20056;-71
2023/10/02 10:44:07;;;;;;;28.52;16.45;;;23.40;99.90;;;;;;5013533;28;20442;-71
2023/10/02 10:46:37;;;;;;;30.23;16.92;;;23.30;99.90;;;;;;5057069;28;21680;-70
2023/10/02 10:49:15;;;;;;;32.72;17.70;;;23.20;99.90;;;;;;5008956;28;20056;-72
2023/10/02 10:51:42;;;;;;;34.05;18.60;;;23.00;99.90;;;;;;5062222;28;20036;-71
2023/10/02 10:57:14;;;;;;;34.38;18.65;;;22.50;99.90;;;;;;5057045;28;20088;-71
2023/10/02 10:59:40;;;;;;;33.90;18.55;;;22.40;99.90;;;;;;5003717;28;20051;-72
2023/10/02 11:02:18;;;;;;;32.35;18.73;;;22.40;99.90;;;;;;5056691;28;20055;-72
2023/10/02 11:04:51;;;;;;;36.95;19.58;;;22.50;99.90;;;;;;4998364;28;20052;-72
2023/10/02 11:07:25;;;;;;;30.42;19.23;;;22.60;99.90;;;;;;5060906;28;20059;-71
2023/10/02 11:10:18;;;;;;;33.40;19.35;;;22.50;99.90;;;;;;5000530;28;20053;-72
2023/10/02 11:12:58;;;;;;;31.52;18.58;;;22.60;99.90;;;;;;5040009;28;20049;-69
2023/10/02 11:15:46;;;;;;;34.92;19.35;;;22.50;99.90;;;;;;5037019;28;20040;-72
2023/10/02 11:18:19;;;;;;;35.75;19.33;;;22.50;99.90;;;;;;5018535;28;20534;-71
2023/10/02 11:20:57;;;;;;;34.05;19.13;;;22.40;99.90;;;;;;5057046;28;20099;-71
2023/10/02 11:23:37;;;;;;;37.88;20.83;;;22.50;99.90;;;;;;5022129;28;20062;-72
2023/10/02 11:26:12;;;;;;;34.33;19.50;;;22.70;99.90;;;;;;5057314;28;20056;-70
2023/10/02 11:28:42;;;;;;;35.22;19.55;;;23.00;99.90;;;;;;5009606;28;20057;-70
2023/10/02 11:31:38;;;;;;;32.90;19.48;;;22.80;99.90;;;;;;5051748;28;20074;-71
2023/10/02 11:34:11;;;;;;;34.33;19.15;;;22.80;99.90;;;;;;5007516;28;20053;-73
2023/10/02 11:36:41;;;;;;;34.47;19.40;;;22.80;99.90;;;;;;5054080;28;20056;-71
2023/10/02 11:39:09;;;;;;;37.80;20.05;;;22.90;99.90;;;;;;5013725;28;20546;-72
2023/10/02 11:41:39;;;;;;;38.60;20.08;;;23.00;99.90;;;;;;5058186;28;20052;-72
2023/10/02 11:44:12;;;;;;;34.58;19.55;;;23.00;99.90;;;;;;5020172;28;20059;-71
2023/10/02 11:46:40;;;;;;;31.52;18.42;;;23.10;99.90;;;;;;5053406;28;20529;-72
2023/10/02 11:49:07;;;;;;;35.50;19.60;;;23.40;99.90;;;;;;5010232;28;20079;-72
2023/10/02 11:51:34;;;;;;;30.80;18.45;;;23.30;99.90;;;;;;5055769;28;20537;-72
2023/10/02 11:54:05;;;;;;;36.28;18.95;;;23.30;99.90;;;;;;4991461;28;207148;-73
2023/10/02 11:56:32;;;;;;;30.65;18.58;;;23.40;99.90;;;;;;5050185;28;20422;-73
2023/10/02 11:58:58;;;;;;;32.50;18.75;;;23.50;99.90;;;;;;5006489;28;20064;-71
2023/10/02 12:01:26;;;;;;;32.97;19.05;;;23.70;99.90;;;;;;5047510;28;20434;-71
2023/10/02 12:03:59;;;;;;;33.55;18.05;;;23.80;99.90;;;;;;5017246;28;20562;-71
2023/10/02 12:06:27;;;;;;;30.90;18.65;;;23.60;99.90;;;;;;5054008;28;20053;-72
2023/10/02 12:09:01;;;;;;;32.15;18.90;;;23.40;99.90;;;;;;5013390;28;20061;-72
2023/10/02 12:11:28;;;;;;;36.90;19.40;;;23.20;99.90;;;;;;5050243;28;20055;-72
2023/10/02 12:13:54;;;;;;;35.90;19.45;;;23.30;99.90;;;;;;5005217;28;20049;-72
2023/10/02 12:16:21;;;;;;;31.55;17.70;;;23.30;99.90;;;;;;5053148;28;20078;-72
2023/10/02 12:18:49;;;;;;;32.85;17.98;;;23.50;99.90;;;;;;5023570;28;20048;-72
2023/10/02 12:21:16;;;;;;;30.88;18.17;;;23.80;99.90;;;;;;5062244;28;20057;-71
2023/10/02 12:23:43;;;;;;;32.80;18.25;;;24.10;99.90;;;;;;5009551;28;20056;-72
2023/10/02 12:26:12;;;;;;;34.50;17.65;;;24.20;99.90;;;;;;5053351;28;20044;-71
2023/10/02 12:28:39;;;;;;;29.85;17.45;;;24.00;99.90;;;;;;5017567;28;20119;-72
2023/10/02 12:31:13;;;;;;;28.98;16.67;;;23.80;99.90;;;;;;5058297;28;20048;-72
2023/10/02 12:33:46;;;;;;;30.60;16.50;;;23.70;99.90;;;;;;5016057;28;20052;-73
2023/10/02 12:36:17;;;;;;;30.77;16.90;;;23.70;99.90;;;;;;5047231;28;20336;-73
2023/10/02 12:38:47;;;;;;;31.83;17.73;;;23.70;99.90;;;;;;5004053;28;20444;-72
2023/10/02 12:41:23;;;;;;;35.13;17.77;;;23.70;99.90;;;;;;5044829;28;20057;-73
2023/10/02 12:43:58;;;;;;;30.77;17.52;;;23.60;99.90;;;;;;5005928;28;21220;-73
2023/10/02 12:46:43;;;;;;;29.33;17.10;;;23.60;99.90;;;;;;5061590;28;20546;-72
2023/10/02 12:49:15;;;;;;;30.27;16.55;;;23.60;99.90;;;;;;5007864;28;20040;-72
2023/10/02 12:51:41;;;;;;;29.40;16.50;;;23.60;99.90;;;;;;5049888;28;20059;-72
2023/10/02 12:54:09;;;;;;;29.90;17.55;;;23.60;99.90;;;;;;4995077;28;183457;-72
2023/10/02 12:56:36;;;;;;;28.70;16.63;;;23.60;99.90;;;;;;5051779;28;20118;-72
2023/10/02 12:59:04;;;;;;;29.08;16.80;;;23.60;99.90;;;;;;5009501;28;20053;-72
2023/10/02 13:01:30;;;;;;;30.05;16.67;;;23.60;99.90;;;;;;5044727;28;20406;-72
2023/10/02 13:03:59;;;;;;;33.50;18.15;;;23.50;99.90;;;;;;5005112;28;20049;-72
2023/10/02 13:06:27;;;;;;;29.95;15.93;;;23.50;99.90;;;;;;5052782;28;20060;-73
2023/10/02 13:08:59;;;;;;;30.25;17.35;;;23.50;99.90;;;;;;5029479;28;20052;-73
2023/10/02 13:11:25;;;;;;;30.13;16.83;;;23.40;99.90;;;;;;5054132;28;20048;-72
2023/10/02 13:13:53;;;;;;;37.88;17.60;;;23.50;99.90;;;;;;4998488;28;20059;-72
2023/10/02 13:16:20;;;;;;;30.05;17.25;;;23.50;99.90;;;;;;5049460;28;20583;-72
2023/10/02 13:18:46;;;;;;;30.55;17.25;;;23.50;99.90;;;;;;5012067;28;21000;-72
2023/10/02 13:21:14;;;;;;;32.08;16.90;;;23.40;99.90;;;;;;5053871;28;20059;-72
2023/10/02 13:23:41;;;;;;;31.77;17.88;;;23.30;99.90;;;;;;5008899;28;20105;-71
2023/10/02 13:26:10;;;;;;;33.72;18.65;;;23.30;99.90;;;;;;5047022;28;20052;-72
2023/10/02 13:28:38;;;;;;;33.78;19.35;;;23.30;99.90;;;;;;5001178;28;20091;-72
2023/10/02 13:31:12;;;;;;;31.80;18.45;;;23.20;99.90;;;;;;5056421;28;20045;-72
2023/10/02 13:33:47;;;;;;;35.83;19.17;;;23.20;99.90;;;;;;5007910;28;20057;-72
2023/10/02 13:36:14;;;;;;;33.65;17.67;;;23.30;99.90;;;;;;5052609;28;20455;-72
2023/10/02 13:38:41;;;;;;;38.70;20.10;;;23.30;99.90;;;;;;5011827;28;20033;-71
2023/10/02 13:41:09;;;;;;;32.63;18.17;;;23.50;99.90;;;;;;5050905;28;20036;-71
2023/10/02 13:43:41;;;;;;;32.00;16.42;;;23.60;99.90;;;;;;5011287;28;20494;-71
2023/10/02 13:46:14;;;;;;;32.22;17.42;;;23.50;99.90;;;;;;5050800;28;20513;-71
2023/10/02 13:48:41;;;;;;;30.90;16.95;;;23.30;99.90;;;;;;5014040;28;20052;-72